Time;durP1;ratioP1;P1;durP2;ratioP2;P2;SDS_P1;SDS_P2;PMS_P1;PMS_P2;Temp;Humidity;BMP_temperature;BMP_pressure;BME280_temperature;BME280_humidity;BME280_pressure;Samples;Min_cycle;Max_cycle;Signal;HPM_P1;HPM_P2
2022/04/10 00:01:30;;;;;;;21.55;20.30;;;4.50;85.40;;;;;;5071815;28;20194;-75
2022/04/10 00:03:57;;;;;;;21.85;20.55;;;4.50;85.30;;;;;;5072227;28;20263;-75
2022/04/10 00:06:26;;;;;;;22.05;20.55;;;4.50;85.10;;;;;;5072358;28;20552;-75
2022/04/10 00:08:53;;;;;;;21.73;20.52;;;4.50;85.30;;;;;;5071936;28;20200;-74
2022/04/10 00:11:20;;;;;;;21.65;20.38;;;4.50;85.40;;;;;;5071776;28;20213;-74
2022/04/10 00:13:47;;;;;;;21.40;20.02;;;4.60;84.70;;;;;;5072159;28;20225;-74
2022/04/10 00:16:14;;;;;;;21.75;20.55;;;4.60;84.50;;;;;;5072105;28;20208;-75
2022/04/10 00:18:41;;;;;;;21.02;19.83;;;4.50;84.50;;;;;;5072076;28;20754;-74
2022/04/10 00:21:08;;;;;;;21.75;20.55;;;4.50;84.60;;;;;;5071745;28;20613;-75
2022/04/10 00:23:37;;;;;;;23.02;21.52;;;4.50;84.70;;;;;;5072133;28;20218;-74
2022/04/10 00:26:04;;;;;;;21.70;20.50;;;4.50;84.50;;;;;;5072273;28;20233;-75
2022/04/10 00:28:31;;;;;;;22.42;21.02;;;4.50;84.60;;;;;;5071965;28;20208;-75
2022/04/10 00:30:58;;;;;;;22.73;21.33;;;4.50;84.40;;;;;;5071325;28;20559;-75
2022/04/10 00:33:25;;;;;;;22.40;21.10;;;4.50;84.30;;;;;;5071969;28;20636;-75
2022/04/10 00:35:51;;;;;;;22.73;21.42;;;4.60;84.00;;;;;;5071739;28;20198;-75
2022/04/10 00:38:20;;;;;;;21.73;20.45;;;4.60;83.80;;;;;;5071917;28;20200;-75
2022/04/10 00:40:48;;;;;;;21.63;20.10;;;4.60;83.20;;;;;;5071316;28;20689;-75
2022/04/10 00:43:16;;;;;;;21.38;20.08;;;4.60;82.90;;;;;;5071891;28;21371;-75
2022/04/10 00:45:43;;;;;;;22.90;21.30;;;4.60;82.80;;;;;;5071731;28;20193;-75
2022/04/10 00:48:10;;;;;;;23.10;21.17;;;4.60;82.50;;;;;;5071911;28;20630;-75
2022/04/10 00:51:39;;;;;;;21.55;20.40;;;4.70;82.30;;;;;;5074342;28;20304;-75
2022/04/10 00:53:26;;;;;;;23.25;21.63;;;4.60;82.40;;;;;;5075699;28;20215;-75
2022/04/10 00:55:54;;;;;;;22.15;20.77;;;4.60;82.80;;;;;;5075848;28;20932;-77
2022/04/10 00:58:21;;;;;;;21.80;20.60;;;4.60;82.80;;;;;;5075874;28;20250;-75
2022/04/10 01:00:48;;;;;;;22.60;21.40;;;4.60;82.80;;;;;;5075169;28;20193;-75
2022/04/10 01:03:15;;;;;;;22.60;21.20;;;4.80;82.40;;;;;;5075477;28;20219;-75
2022/04/10 01:05:46;;;;;;;21.60;20.40;;;4.80;82.10;;;;;;5075823;28;20224;-75
2022/04/10 01:08:13;;;;;;;21.25;19.90;;;4.70;82.30;;;;;;5075328;28;20255;-75
2022/04/10 01:10:40;;;;;;;22.48;21.00;;;4.60;82.70;;;;;;5074657;28;20227;-75
2022/04/10 01:13:08;;;;;;;22.80;20.95;;;4.60;82.70;;;;;;5075437;28;20221;-75
2022/04/10 01:15:36;;;;;;;21.55;20.35;;;4.60;84.00;;;;;;5075357;28;20228;-75
2022/04/10 01:18:03;;;;;;;21.52;20.40;;;4.50;84.50;;;;;;5075227;28;20201;-75
2022/04/10 01:20:31;;;;;;;21.30;20.10;;;4.50;84.50;;;;;;5074829;28;20195;-75
2022/04/10 01:22:59;;;;;;;21.40;20.10;;;4.50;84.30;;;;;;5075103;28;20638;-75
2022/04/10 01:25:27;;;;;;;21.60;20.10;;;4.50;84.20;;;;;;5075344;28;20279;-75
2022/04/10 01:27:54;;;;;;;20.85;19.75;;;4.50;85.00;;;;;;5075232;28;20253;-75
2022/04/10 01:30:22;;;;;;;21.65;20.27;;;4.50;84.70;;;;;;5074452;28;20224;-75
2022/04/10 01:32:49;;;;;;;21.67;20.40;;;4.60;84.10;;;;;;5075048;28;20223;-75
2022/04/10 01:35:18;;;;;;;21.48;20.27;;;4.80;83.10;;;;;;5074944;28;20209;-75
2022/04/10 01:37:47;;;;;;;22.35;21.05;;;4.80;82.70;;;;;;5074853;28;20677;-75
2022/04/10 01:40:15;;;;;;;22.38;21.10;;;4.80;82.60;;;;;;5074519;28;20746;-73
2022/04/10 01:42:42;;;;;;;22.70;21.45;;;4.90;82.90;;;;;;5074773;28;20260;-73
2022/04/10 01:45:09;;;;;;;21.65;20.45;;;4.90;83.00;;;;;;5074963;28;20205;-73
2022/04/10 01:47:37;;;;;;;20.63;19.42;;;4.90;82.80;;;;;;5074797;28;20285;-73
2022/04/10 01:50:04;;;;;;;21.48;20.17;;;4.90;82.80;;;;;;5073970;28;20254;-73
2022/04/10 01:52:31;;;;;;;21.20;20.00;;;5.00;82.60;;;;;;5074565;28;20521;-73
2022/04/10 01:54:58;;;;;;;22.20;20.92;;;4.90;82.50;;;;;;5074717;28;20292;-73
2022/04/10 01:57:26;;;;;;;21.38;20.02;;;4.90;82.30;;;;;;5074697;28;20251;-73
2022/04/10 01:59:53;;;;;;;22.50;21.25;;;4.90;82.30;;;;;;5074026;28;20194;-73
2022/04/10 02:02:20;;;;;;;22.35;21.15;;;4.80;82.70;;;;;;5073799;28;20206;-73
2022/04/10 02:04:47;;;;;;;21.30;20.10;;;4.80;82.70;;;;;;5074690;28;20285;-73
2022/04/10 02:07:13;;;;;;;23.30;21.80;;;4.60;83.80;;;;;;5074878;28;20204;-73
2022/04/10 02:09:40;;;;;;;22.55;21.25;;;4.60;84.20;;;;;;5073721;28;20559;-73
2022/04/10 02:12:09;;;;;;;22.23;20.92;;;4.60;84.20;;;;;;5074331;28;20222;-73
2022/04/10 02:14:37;;;;;;;21.70;20.40;;;4.60;84.00;;;;;;5074329;28;20202;-73
2022/04/10 02:17:04;;;;;;;21.40;20.17;;;4.60;84.30;;;;;;5074294;28;20571;-73
2022/04/10 02:19:31;;;;;;;22.90;21.42;;;4.50;84.10;;;;;;5073681;28;20207;-73
2022/04/10 02:21:59;;;;;;;21.20;20.00;;;4.50;84.80;;;;;;5074200;28;20201;-73
2022/04/10 02:24:26;;;;;;;21.58;20.38;;;4.50;84.70;;;;;;5074236;28;20256;-73
2022/04/10 02:26:53;;;;;;;21.77;20.58;;;4.50;84.20;;;;;;5073996;28;20202;-73
2022/04/10 02:29:20;;;;;;;22.05;20.75;;;4.40;84.30;;;;;;5073531;28;20206;-73
2022/04/10 02:31:48;;;;;;;21.70;20.40;;;4.50;84.40;;;;;;5073954;28;20221;-73
2022/04/10 02:34:15;;;;;;;22.00;20.80;;;4.40;84.10;;;;;;5073986;28;20216;-73
2022/04/10 02:36:42;;;;;;;21.98;20.67;;;4.40;84.60;;;;;;5074131;28;20610;-73
2022/04/10 02:39:09;;;;;;;21.83;20.63;;;4.30;84.80;;;;;;5073422;28;20192;-74
2022/04/10 02:41:36;;;;;;;23.52;22.27;;;4.20;84.80;;;;;;5073927;28;20695;-73
2022/04/10 02:44:03;;;;;;;22.58;21.33;;;4.10;84.90;;;;;;5073798;28;20248;-73
2022/04/10 02:46:30;;;;;;;21.90;20.70;;;4.10;85.20;;;;;;5073576;28;20202;-73
2022/04/10 02:48:58;;;;;;;21.70;20.60;;;4.10;85.20;;;;;;5073599;28;20200;-73
2022/04/10 02:51:25;;;;;;;21.60;20.25;;;4.00;86.30;;;;;;5073210;28;20308;-73
2022/04/10 02:53:52;;;;;;;22.48;21.20;;;4.00;86.70;;;;;;5073560;28;20299;-73
2022/04/10 02:56:18;;;;;;;23.15;21.65;;;3.90;86.30;;;;;;5073690;28;20283;-73
2022/04/10 02:58:45;;;;;;;23.35;21.80;;;3.90;86.10;;;;;;5073557;28;20201;-73
2022/04/10 03:01:12;;;;;;;23.10;21.40;;;3.90;86.20;;;;;;5072944;28;20188;-73
2022/04/10 03:03:39;;;;;;;21.95;20.65;;;3.90;85.90;;;;;;5073275;28;20221;-73
2022/04/10 03:06:07;;;;;;;21.67;20.27;;;3.90;86.20;;;;;;5073551;28;20288;-73
2022/04/10 03:08:34;;;;;;;21.48;20.17;;;3.80;86.90;;;;;;5072688;28;20217;-73
2022/04/10 03:11:03;;;;;;;22.20;20.90;;;3.80;86.40;;;;;;5072826;28;20227;-73
2022/04/10 03:13:30;;;;;;;23.00;21.60;;;3.80;86.40;;;;;;5072126;28;20212;-73
2022/04/10 03:15:57;;;;;;;22.13;20.80;;;3.90;86.10;;;;;;5073289;28;20680;-73
2022/04/10 03:18:24;;;;;;;21.92;20.73;;;3.80;85.80;;;;;;5073110;28;20284;-73
2022/04/10 03:20:51;;;;;;;22.73;21.42;;;3.80;86.10;;;;;;5072546;28;20206;-73
2022/04/10 03:23:19;;;;;;;21.60;20.50;;;3.70;86.40;;;;;;5072824;28;20380;-73
2022/04/10 03:25:46;;;;;;;21.70;20.60;;;3.70;87.10;;;;;;5072953;28;20207;-73
2022/04/10 03:28:13;;;;;;;22.60;21.00;;;3.60;87.40;;;;;;5072697;28;20204;-73
2022/04/10 03:30:40;;;;;;;22.67;21.38;;;3.50;87.60;;;;;;5072492;28;20584;-73
2022/04/10 03:33:07;;;;;;;22.33;20.95;;;3.40;87.40;;;;;;5072795;28;20212;-73
2022/04/10 03:35:34;;;;;;;23.23;21.73;;;3.40;87.30;;;;;;5072708;28;20208;-73
2022/04/10 03:38:01;;;;;;;22.98;21.58;;;3.40;87.20;;;;;;5072637;28;20202;-73
2022/04/10 03:40:29;;;;;;;22.73;21.20;;;3.30;87.20;;;;;;5072150;28;20558;-73
2022/04/10 03:42:56;;;;;;;22.17;20.75;;;3.20;88.40;;;;;;5072511;28;20237;-73
2022/04/10 03:45:23;;;;;;;22.63;21.27;;;3.10;88.60;;;;;;5072639;28;20291;-73
2022/04/10 03:47:49;;;;;;;22.42;21.15;;;3.10;88.50;;;;;;5072474;28;20744;-73
2022/04/10 03:50:16;;;;;;;23.40;21.90;;;3.00;88.50;;;;;;5072398;28;20208;-73
2022/04/10 03:52:44;;;;;;;23.83;22.27;;;3.10;88.40;;;;;;5072360;28;20269;-73
2022/04/10 03:55:10;;;;;;;23.52;22.02;;;3.10;88.50;;;;;;5072776;28;20193;-73
2022/04/10 03:57:39;;;;;;;23.40;22.00;;;3.20;88.20;;;;;;5072481;28;20307;-73
2022/04/10 04:00:07;;;;;;;23.38;22.02;;;3.20;87.90;;;;;;5071992;28;20192;-73
2022/04/10 04:02:34;;;;;;;23.33;21.92;;;3.20;87.80;;;;;;5072220;28;20239;-73
2022/04/10 04:05:01;;;;;;;23.75;22.20;;;3.30;87.20;;;;;;5072378;28;20299;-73
2022/04/10 04:07:28;;;;;;;26.92;25.13;;;3.30;86.90;;;;;;5072063;28;20554;-73
2022/04/10 04:09:55;;;;;;;24.55;23.05;;;3.40;86.80;;;;;;5071057;28;20573;-73
2022/04/10 04:12:22;;;;;;;24.67;23.10;;;3.40;86.60;;;;;;5072036;28;20227;-73
2022/04/10 04:14:50;;;;;;;24.00;22.25;;;3.50;86.50;;;;;;5072197;28;20622;-73
2022/04/10 04:17:17;;;;;;;24.40;22.50;;;3.50;85.90;;;;;;5072249;28;20283;-73
2022/04/10 04:19:46;;;;;;;24.42;22.92;;;3.50;85.80;;;;;;5071431;28;20192;-73
2022/04/10 04:22:13;;;;;;;23.90;22.30;;;3.60;85.80;;;;;;5072049;28;20278;-73
2022/04/10 04:24:40;;;;;;;24.30;22.55;;;3.60;85.80;;;;;;5071832;28;20196;-73
2022/04/10 04:27:06;;;;;;;25.40;23.77;;;3.70;85.60;;;;;;5072035;28;20196;-73
2022/04/10 04:29:33;;;;;;;25.63;23.90;;;3.70;85.80;;;;;;5071607;28;20561;-73
2022/04/10 04:32:01;;;;;;;25.65;24.05;;;3.80;85.30;;;;;;5072019;28;20716;-73
2022/04/10 04:34:28;;;;;;;25.95;24.35;;;4.00;84.40;;;;;;5071940;28;20204;-73
2022/04/10 04:36:55;;;;;;;27.92;25.92;;;4.00;84.10;;;;;;5071853;28;20553;-73
2022/04/10 04:39:22;;;;;;;25.17;23.67;;;4.00;84.00;;;;;;5071454;28;20194;-73
2022/04/10 04:41:49;;;;;;;26.33;24.73;;;3.90;84.00;;;;;;5071851;28;20193;-73
2022/04/10 04:44:16;;;;;;;26.02;24.30;;;4.00;83.80;;;;;;5071803;28;20216;-73
2022/04/10 04:46:43;;;;;;;24.73;23.33;;;4.00;83.80;;;;;;5072149;28;20201;-73
2022/04/10 04:49:11;;;;;;;25.20;23.55;;;4.10;83.70;;;;;;5071129;28;20287;-73
2022/04/10 04:51:38;;;;;;;26.52;24.45;;;4.20;83.20;;;;;;5071707;28;20227;-73
2022/04/10 04:54:08;;;;;;;26.30;24.55;;;4.20;83.30;;;;;;5071895;28;20771;-73
2022/04/10 04:56:35;;;;;;;23.92;22.52;;;4.30;83.00;;;;;;5071923;28;20662;-73
2022/04/10 04:59:02;;;;;;;24.33;22.92;;;4.30;82.40;;;;;;5071594;28;20292;-74
2022/04/10 05:01:29;;;;;;;24.70;23.40;;;4.40;82.30;;;;;;5071560;28;20284;-73
2022/04/10 05:03:55;;;;;;;24.13;22.52;;;4.40;82.20;;;;;;5071530;28;20219;-73
2022/04/10 05:06:25;;;;;;;24.20;22.80;;;4.50;82.10;;;;;;5071591;28;20203;-74
2022/04/10 05:08:52;;;;;;;24.60;23.30;;;4.50;81.80;;;;;;5071315;28;20206;-74
2022/04/10 05:11:19;;;;;;;26.65;24.95;;;4.50;81.60;;;;;;5071081;28;20193;-74
2022/04/10 05:13:46;;;;;;;25.02;23.52;;;4.50;81.50;;;;;;5071470;28;20214;-74
2022/04/10 05:16:12;;;;;;;25.15;23.50;;;4.60;81.10;;;;;;5071402;28;20205;-74
2022/04/10 05:18:40;;;;;;;25.20;23.73;;;4.70;81.00;;;;;;5071505;28;20201;-74
2022/04/10 05:21:07;;;;;;;25.83;23.83;;;4.70;80.70;;;;;;5071184;28;20292;-74
2022/04/10 05:23:36;;;;;;;25.05;23.45;;;4.80;80.70;;;;;;5071575;28;20213;-74
2022/04/10 05:26:03;;;;;;;26.08;24.38;;;4.80;80.30;;;;;;5071540;28;20285;-73
2022/04/10 05:28:31;;;;;;;25.13;23.63;;;4.90;80.20;;;;;;5071322;28;20559;-74
2022/04/10 05:30:57;;;;;;;28.83;27.23;;;4.90;80.20;;;;;;5070990;28;20292;-73
2022/04/10 05:33:24;;;;;;;25.23;23.83;;;5.00;79.50;;;;;;5072470;28;20226;-74
2022/04/10 05:35:55;;;;;;;26.38;24.88;;;5.10;79.60;;;;;;5071864;28;20639;-74
2022/04/10 05:38:22;;;;;;;25.08;23.40;;;5.10;79.40;;;;;;5075311;28;20194;-74
2022/04/10 05:40:52;;;;;;;26.35;24.75;;;5.30;78.70;;;;;;5074983;28;20289;-74
2022/04/10 05:43:20;;;;;;;25.27;23.67;;;5.40;78.50;;;;;;5075219;28;20305;-74
2022/04/10 05:45:47;;;;;;;24.80;23.30;;;5.40;78.30;;;;;;5075152;28;20533;-74
2022/04/10 05:48:14;;;;;;;25.77;24.10;;;5.50;77.80;;;;;;5074944;28;20201;-74
2022/04/10 05:50:41;;;;;;;24.30;22.80;;;5.50;77.90;;;;;;5074338;28;20682;-74
2022/04/10 05:53:08;;;;;;;27.23;25.55;;;5.50;77.60;;;;;;5074661;28;20270;-74
2022/04/10 05:55:35;;;;;;;24.60;23.20;;;5.50;79.00;;;;;;5075132;28;20202;-74
2022/04/10 05:58:04;;;;;;;26.63;25.00;;;5.50;78.00;;;;;;5075025;28;20205;-73
2022/04/10 06:00:31;;;;;;;25.20;23.70;;;5.60;77.50;;;;;;5075248;28;20203;-74
2022/04/10 06:03:02;;;;;;;25.45;23.95;;;5.70;77.20;;;;;;5076665;28;20552;-74
2022/04/10 06:05:29;;;;;;;26.80;25.10;;;5.70;77.10;;;;;;5076027;28;20528;-73
2022/04/10 06:07:56;;;;;;;24.98;23.52;;;5.80;77.00;;;;;;5074970;28;20292;-74
2022/04/10 06:10:23;;;;;;;25.70;24.27;;;5.90;76.20;;;;;;5073451;28;20282;-74
2022/04/10 06:12:50;;;;;;;24.98;23.55;;;6.00;75.80;;;;;;5074334;28;20224;-74
2022/04/10 06:15:19;;;;;;;26.52;24.77;;;6.20;75.40;;;;;;5074228;28;20202;-74
2022/04/10 06:17:46;;;;;;;25.85;24.25;;;6.30;74.70;;;;;;5074226;28;20204;-74
2022/04/10 06:20:13;;;;;;;27.00;25.30;;;6.40;74.20;;;;;;5073857;28;20203;-74
2022/04/10 06:22:41;;;;;;;25.65;23.98;;;6.50;73.80;;;;;;5074009;28;20217;-74
2022/04/10 06:25:09;;;;;;;26.55;24.90;;;6.60;73.40;;;;;;5074169;28;20203;-74
2022/04/10 06:27:36;;;;;;;27.42;25.73;;;6.70;73.30;;;;;;5074059;28;20206;-74
2022/04/10 06:30:04;;;;;;;26.05;24.25;;;6.70;73.20;;;;;;5073527;28;20204;-73
2022/04/10 06:32:32;;;;;;;26.20;24.50;;;6.80;72.70;;;;;;5073985;28;20561;-73
2022/04/10 06:34:59;;;;;;;25.17;23.67;;;6.90;72.10;;;;;;5073838;28;20704;-74
2022/04/10 06:37:26;;;;;;;26.20;24.60;;;7.00;72.00;;;;;;5073820;28;20625;-74
2022/04/10 06:39:52;;;;;;;25.67;24.08;;;7.10;72.10;;;;;;5073214;28;20662;-74
2022/04/10 06:42:19;;;;;;;27.10;25.52;;;7.30;70.80;;;;;;5073952;28;20203;-74
2022/04/10 06:44:46;;;;;;;25.73;24.02;;;7.30;71.00;;;;;;5073990;28;20278;-74
2022/04/10 06:47:13;;;;;;;26.77;25.17;;;7.40;70.50;;;;;;5073411;28;20207;-75
2022/04/10 06:49:41;;;;;;;27.45;25.45;;;7.60;70.00;;;;;;5073061;28;20192;-75
2022/04/10 06:52:08;;;;;;;25.17;23.55;;;7.70;69.50;;;;;;5073319;28;20218;-74
2022/04/10 06:54:35;;;;;;;25.90;24.33;;;7.80;68.80;;;;;;5073569;28;20725;-74
2022/04/10 06:57:02;;;;;;;24.83;23.52;;;7.80;69.10;;;;;;5073520;28;20200;-75
2022/04/10 06:59:29;;;;;;;25.52;24.05;;;8.00;69.20;;;;;;5073102;28;20200;-74
2022/04/10 07:01:56;;;;;;;27.85;25.90;;;8.00;68.80;;;;;;5073302;28;20679;-74
2022/04/10 07:04:23;;;;;;;26.10;24.58;;;8.10;68.40;;;;;;5073404;28;20212;-74
2022/04/10 07:06:51;;;;;;;26.38;24.77;;;8.20;68.10;;;;;;5073257;28;20359;-74
2022/04/10 07:09:19;;;;;;;25.15;23.73;;;8.20;67.80;;;;;;5072342;28;20207;-74
2022/04/10 07:11:46;;;;;;;26.60;24.60;;;8.40;67.40;;;;;;5073306;28;20246;-74
2022/04/10 07:14:13;;;;;;;26.30;24.70;;;8.50;67.20;;;;;;5072779;28;20318;-75
2022/04/10 07:16:40;;;;;;;25.42;23.80;;;8.70;66.30;;;;;;5073219;28;20298;-74
2022/04/10 07:19:08;;;;;;;27.77;25.73;;;8.40;66.10;;;;;;5072819;28;20244;-73
2022/04/10 07:24:21;;;;;;;26.70;25.15;;;8.50;65.60;;;;;;5073177;28;20215;-73
2022/04/10 07:26:49;;;;;;;28.48;26.67;;;8.40;66.60;;;;;;5073101;28;20207;-73
2022/04/10 07:29:16;;;;;;;27.73;25.92;;;8.50;65.60;;;;;;5072438;28;20201;-73
2022/04/10 07:31:43;;;;;;;27.65;25.75;;;8.30;66.30;;;;;;5072793;28;20199;-73
2022/04/10 07:34:09;;;;;;;25.63;24.02;;;8.50;66.40;;;;;;5072563;28;20303;-74
2022/04/10 07:36:37;;;;;;;26.77;24.83;;;8.80;65.90;;;;;;5073025;28;20223;-74
2022/04/10 07:39:04;;;;;;;25.25;23.73;;;9.00;65.30;;;;;;5072643;28;20204;-74
2022/04/10 07:41:32;;;;;;;28.15;26.88;;;9.30;64.80;;;;;;5072329;28;20200;-74
2022/04/10 07:43:59;;;;;;;26.92;25.40;;;9.40;63.80;;;;;;5072501;28;20209;-74
2022/04/10 07:49:10;;;;;;;27.17;25.05;;;9.40;62.80;;;;;;5072092;28;20198;-74
2022/04/10 07:51:38;;;;;;;27.00;25.30;;;9.40;62.40;;;;;;5072463;28;20197;-74
2022/04/10 07:54:05;;;;;;;27.33;25.45;;;9.40;62.60;;;;;;5072491;28;20224;-74
2022/04/10 07:56:33;;;;;;;26.13;24.58;;;9.50;62.30;;;;;;5072398;28;20600;-74
2022/04/10 07:59:00;;;;;;;26.23;24.80;;;9.80;62.80;;;;;;5071712;28;20207;-74
2022/04/10 08:01:27;;;;;;;26.17;24.67;;;9.90;62.00;;;;;;5072061;28;20699;-74
2022/04/10 08:03:54;;;;;;;25.33;23.90;;;10.00;61.60;;;;;;5072307;28;20215;-74
2022/04/10 08:06:21;;;;;;;26.30;24.70;;;10.20;61.30;;;;;;5072090;28;20962;-74
2022/04/10 08:08:48;;;;;;;25.67;24.07;;;10.30;60.10;;;;;;5071709;28;20460;-74
2022/04/10 08:11:15;;;;;;;26.07;24.57;;;10.40;59.80;;;;;;5071628;28;20486;-74
2022/04/10 08:13:43;;;;;;;26.50;25.00;;;10.50;59.40;;;;;;5072108;28;20482;-74
2022/04/10 08:16:10;;;;;;;25.17;23.77;;;10.70;58.10;;;;;;5072004;28;20839;-74
2022/04/10 08:18:37;;;;;;;27.40;25.77;;;10.70;57.70;;;;;;5072109;28;20545;-74
2022/04/10 08:21:04;;;;;;;28.37;26.27;;;10.60;57.50;;;;;;5071598;28;20450;-75
2022/04/10 08:23:31;;;;;;;25.60;24.10;;;10.60;57.60;;;;;;5072261;28;20470;-74
2022/04/10 08:25:57;;;;;;;26.10;24.20;;;10.40;58.20;;;;;;5071875;28;20501;-74
2022/04/10 08:28:24;;;;;;;25.53;24.03;;;10.30;58.50;;;;;;5071779;28;20831;-74
2022/04/10 08:30:53;;;;;;;25.77;24.27;;;10.00;59.30;;;;;;5071694;28;20963;-74
2022/04/10 08:33:20;;;;;;;28.20;26.73;;;9.60;59.10;;;;;;5072088;28;20484;-74
2022/04/10 08:35:46;;;;;;;25.47;24.07;;;9.60;59.60;;;;;;5072054;28;20549;-74
2022/04/10 08:38:14;;;;;;;26.90;25.40;;;9.80;58.30;;;;;;5071684;28;20537;-74
2022/04/10 08:40:41;;;;;;;26.65;25.02;;;9.40;58.70;;;;;;5071191;28;21026;-74
2022/04/10 08:43:11;;;;;;;26.67;25.08;;;9.30;59.30;;;;;;5072016;28;20216;-74
2022/04/10 08:45:39;;;;;;;28.08;26.42;;;9.10;59.60;;;;;;5071807;28;20292;-74
2022/04/10 08:48:08;;;;;;;26.50;24.80;;;9.20;59.40;;;;;;5071885;28;20239;-74
2022/04/10 08:50:35;;;;;;;25.52;24.13;;;9.40;58.90;;;;;;5071286;28;20539;-74
2022/04/10 08:53:03;;;;;;;25.67;24.17;;;9.40;57.30;;;;;;5071710;28;20650;-74
2022/04/10 08:55:30;;;;;;;26.73;25.02;;;9.40;56.70;;;;;;5071977;28;20207;-74
2022/04/10 08:57:57;;;;;;;25.25;23.65;;;9.10;57.70;;;;;;5071788;28;20192;-75
2022/04/10 09:00:24;;;;;;;26.75;24.98;;;9.10;58.30;;;;;;5071349;28;20287;-75
2022/04/10 09:02:53;;;;;;;28.00;26.40;;;9.20;58.70;;;;;;5071627;28;20649;-75
2022/04/10 09:05:24;;;;;;;25.83;24.15;;;9.30;58.80;;;;;;5071676;28;20216;-75
2022/04/10 09:08:08;;;;;;;26.17;24.63;;;9.50;58.30;;;;;;5071972;28;20200;-74
2022/04/10 09:10:55;;;;;;;25.63;23.90;;;9.70;57.20;;;;;;5070555;28;20673;-74
2022/04/10 09:13:26;;;;;;;27.17;25.40;;;9.90;56.60;;;;;;5075409;28;20307;-75
2022/04/10 09:16:00;;;;;;;26.60;25.00;;;9.90;57.00;;;;;;5075367;28;20618;-75
2022/04/10 09:18:27;;;;;;;25.50;24.10;;;10.10;57.10;;;;;;5076093;28;20235;-74
2022/04/10 09:21:08;;;;;;;25.53;24.03;;;10.40;56.80;;;;;;5075902;28;20823;-74
2022/04/10 09:23:35;;;;;;;25.17;23.77;;;10.70;56.20;;;;;;5076115;28;20466;-74
2022/04/10 09:26:02;;;;;;;25.70;24.30;;;10.40;56.70;;;;;;5076193;28;20951;-75
2022/04/10 09:28:43;;;;;;;26.00;24.40;;;10.40;56.90;;;;;;5075209;28;20450;-75
2022/04/10 09:31:30;;;;;;;25.30;23.80;;;10.20;57.00;;;;;;5075044;28;20870;-75
2022/04/10 09:33:58;;;;;;;25.50;23.90;;;9.80;58.30;;;;;;5075214;28;20565;-75
2022/04/10 09:36:40;;;;;;;25.15;23.75;;;9.60;58.40;;;;;;5074846;28;20617;-74
2022/04/10 09:39:10;;;;;;;25.75;24.10;;;9.60;58.30;;;;;;5074834;28;20537;-75
2022/04/10 09:41:38;;;;;;;25.83;24.15;;;9.40;59.00;;;;;;5074995;28;20207;-75
2022/04/10 09:44:13;;;;;;;24.52;23.08;;;9.40;58.40;;;;;;5075057;28;20248;-75
2022/04/10 09:46:41;;;;;;;27.35;25.58;;;9.30;57.40;;;;;;5074959;28;20204;-75
2022/04/10 09:49:19;;;;;;;26.45;24.75;;;9.40;58.10;;;;;;5074534;28;20201;-75
2022/04/10 09:52:03;;;;;;;24.55;23.15;;;9.30;58.50;;;;;;5074822;28;20249;-75
2022/04/10 09:54:35;;;;;;;25.80;24.20;;;9.50;57.60;;;;;;5074897;28;20302;-75
2022/04/10 09:57:04;;;;;;;24.45;23.05;;;9.90;54.90;;;;;;5074645;28;20203;-75
2022/04/10 09:59:36;;;;;;;24.48;23.00;;;10.20;52.80;;;;;;5074193;28;20207;-75
2022/04/10 10:02:05;;;;;;;25.70;24.10;;;10.50;52.50;;;;;;5074558;28;20287;-75
2022/04/10 10:04:34;;;;;;;24.63;22.90;;;10.60;52.30;;;;;;5074738;28;20458;-75
2022/04/10 10:07:05;;;;;;;24.10;22.80;;;10.30;52.80;;;;;;5074386;28;20847;-75
2022/04/10 10:09:33;;;;;;;24.00;22.67;;;10.30;53.40;;;;;;5073694;28;20487;-74
2022/04/10 10:12:01;;;;;;;23.83;22.33;;;10.50;52.50;;;;;;5074421;28;20962;-75
2022/04/10 10:14:30;;;;;;;23.50;22.00;;;10.60;50.30;;;;;;5074234;28;20479;-75
2022/04/10 10:16:58;;;;;;;24.13;22.60;;;10.60;51.30;;;;;;5074205;28;20465;-75
2022/04/10 10:19:26;;;;;;;23.60;22.13;;;10.60;51.30;;;;;;5073922;28;20910;-75
2022/04/10 10:21:53;;;;;;;24.50;22.63;;;10.80;51.50;;;;;;5073705;28;20932;-75
2022/04/10 10:24:25;;;;;;;26.00;24.40;;;11.10;51.50;;;;;;5074193;28;20474;-75
2022/04/10 10:27:16;;;;;;;24.73;23.23;;;11.00;50.60;;;;;;5074151;28;20823;-75
2022/04/10 10:30:02;;;;;;;25.33;23.97;;;11.10;51.10;;;;;;5073782;28;20534;-75
2022/04/10 10:32:40;;;;;;;25.63;23.93;;;11.00;50.10;;;;;;5074011;28;20475;-75
2022/04/10 10:35:09;;;;;;;25.33;23.70;;;10.80;51.40;;;;;;5073868;28;20474;-75
2022/04/10 10:37:50;;;;;;;25.13;23.63;;;10.30;52.50;;;;;;5074025;28;20454;-75
2022/04/10 10:40:20;;;;;;;24.80;23.30;;;10.00;52.80;;;;;;5073490;28;20578;-74
2022/04/10 10:42:49;;;;;;;27.07;25.57;;;9.80;55.50;;;;;;5073906;28;20557;-75
2022/04/10 10:45:35;;;;;;;26.57;24.77;;;9.80;57.50;;;;;;5073599;28;20454;-75
2022/04/10 10:48:25;;;;;;;24.73;23.03;;;9.70;58.20;;;;;;5073599;28;20443;-75
2022/04/10 10:50:53;;;;;;;25.50;23.92;;;9.60;57.30;;;;;;5073238;28;20533;-75
2022/04/10 10:53:42;;;;;;;27.15;25.45;;;9.50;58.10;;;;;;5073435;28;20307;-74
2022/04/10 10:56:15;;;;;;;25.55;24.05;;;9.50;59.30;;;;;;5073829;28;20203;-74
2022/04/10 10:58:42;;;;;;;26.08;24.58;;;9.50;59.70;;;;;;5073962;28;20283;-75
2022/04/10 11:01:09;;;;;;;27.30;25.60;;;9.20;61.10;;;;;;5073171;28;20490;-75
2022/04/10 11:04:00;;;;;;;27.48;25.73;;;9.10;61.90;;;;;;5073462;28;20338;-75
2022/04/10 11:06:29;;;;;;;27.48;25.73;;;9.00;62.10;;;;;;5073548;28;20193;-75
2022/04/10 11:08:56;;;;;;;25.90;24.25;;;8.80;63.00;;;;;;5072869;28;20573;-75
2022/04/10 11:11:35;;;;;;;26.95;25.15;;;8.90;61.60;;;;;;5072852;28;20254;-74
2022/04/10 11:14:03;;;;;;;25.30;23.80;;;8.50;61.20;;;;;;5073015;28;20312;-74
2022/04/10 11:16:30;;;;;;;25.25;23.75;;;8.70;60.10;;;;;;5073140;28;20203;-75
2022/04/10 11:19:02;;;;;;;28.95;27.15;;;8.90;59.70;;;;;;5072969;28;20203;-75
2022/04/10 11:21:31;;;;;;;26.50;24.80;;;9.20;58.00;;;;;;5072709;28;20200;-74
2022/04/10 11:23:59;;;;;;;29.55;27.55;;;9.20;56.90;;;;;;5073127;28;20220;-75
2022/04/10 11:26:35;;;;;;;26.48;24.77;;;9.60;56.80;;;;;;5073120;28;20227;-74
2022/04/10 11:29:07;;;;;;;26.65;24.95;;;9.90;57.10;;;;;;5072799;28;20203;-74
2022/04/10 11:31:38;;;;;;;28.87;27.03;;;10.20;56.20;;;;;;5072634;28;20196;-74
2022/04/10 11:34:09;;;;;;;25.97;24.40;;;10.40;55.80;;;;;;5071983;28;21047;-74
2022/04/10 11:36:52;;;;;;;26.03;24.53;;;10.40;55.20;;;;;;5072919;28;20455;-75
2022/04/10 11:39:23;;;;;;;25.63;24.13;;;10.30;54.70;;;;;;5072077;28;20455;-75
2022/04/10 11:41:53;;;;;;;28.73;26.97;;;10.00;55.60;;;;;;5072622;28;20955;-75
2022/04/10 11:44:20;;;;;;;25.50;24.07;;;10.00;56.90;;;;;;5072874;28;21014;-75
2022/04/10 11:46:48;;;;;;;26.00;24.50;;;10.10;56.70;;;;;;5072805;28;20451;-75
2022/04/10 11:49:18;;;;;;;26.43;24.93;;;10.40;56.50;;;;;;5072050;28;20450;-75
2022/04/10 11:51:55;;;;;;;25.40;23.90;;;10.80;56.60;;;;;;5072483;28;20963;-75
2022/04/10 11:54:27;;;;;;;26.50;25.00;;;11.30;56.60;;;;;;5072205;28;20486;-75
2022/04/10 11:56:55;;;;;;;25.33;23.90;;;11.50;56.40;;;;;;5072447;28;20455;-75
2022/04/10 11:59:22;;;;;;;25.37;23.97;;;11.80;53.90;;;;;;5071898;28;20969;-75
2022/04/10 12:01:50;;;;;;;25.87;24.20;;;12.20;54.60;;;;;;5072341;28;20809;-75
2022/04/10 12:04:19;;;;;;;26.57;24.67;;;12.40;53.20;;;;;;5072491;28;21021;-75
2022/04/10 12:06:46;;;;;;;25.63;24.07;;;12.60;52.60;;;;;;5072175;28;20820;-75
2022/04/10 12:09:14;;;;;;;26.57;24.70;;;12.70;52.00;;;;;;5071448;28;20461;-76
2022/04/10 12:11:41;;;;;;;26.03;24.53;;;12.70;51.30;;;;;;5072076;28;20458;-75
2022/04/10 12:14:23;;;;;;;24.90;23.30;;;12.30;50.60;;;;;;5071981;28;20482;-75
2022/04/10 12:16:51;;;;;;;27.60;25.90;;;11.90;52.30;;;;;;5072364;28;20533;-75
2022/04/10 12:19:30;;;;;;;27.77;25.70;;;11.70;52.60;;;;;;5072078;28;20461;-75
2022/04/10 12:21:57;;;;;;;25.97;24.10;;;11.10;52.60;;;;;;5073454;28;20450;-75
2022/04/10 12:24:24;;;;;;;26.50;25.00;;;11.00;54.10;;;;;;5072813;28;20549;-75
2022/04/10 12:26:51;;;;;;;24.70;23.40;;;11.30;54.20;;;;;;5072718;28;20533;-75
2022/04/10 12:29:21;;;;;;;26.33;24.80;;;11.80;49.50;;;;;;5071597;28;20454;-75
2022/04/10 12:31:50;;;;;;;24.57;23.20;;;11.60;47.80;;;;;;5071972;28;20455;-75
2022/04/10 12:34:17;;;;;;;27.17;24.93;;;11.60;50.90;;;;;;5071716;28;20475;-75
2022/04/10 12:36:48;;;;;;;25.57;24.10;;;11.80;51.40;;;;;;5072086;28;20446;-75
2022/04/10 12:39:25;;;;;;;27.20;25.40;;;11.90;51.20;;;;;;5071210;28;20453;-75
2022/04/10 12:42:02;;;;;;;25.87;24.40;;;12.00;51.40;;;;;;5071986;28;20553;-75
2022/04/10 12:44:30;;;;;;;26.03;24.43;;;12.10;52.00;;;;;;5071999;28;20537;-75
2022/04/10 12:46:57;;;;;;;27.17;25.47;;;12.30;52.10;;;;;;5075704;28;20466;-75
2022/04/10 12:49:25;;;;;;;26.67;25.00;;;12.00;53.50;;;;;;5075533;28;20494;-75